Time;durP1;ratioP1;P1;durP2;ratioP2;P2;SDS_P1;SDS_P2;PMS_P1;PMS_P2;Temp;Humidity;BMP_temperature;BMP_pressure;BME280_temperature;BME280_humidity;BME280_pressure;Samples;Min_cycle;Max_cycle;Signal;HPM_P1;HPM_P2
2023/12/06 00:00:52;;;;;;;605.88;240.93;;;;;;;2.59;100.00;97253.94;5027118;28;20053;-54
2023/12/06 00:03:17;;;;;;;483.45;235.82;;;;;;;2.59;100.00;97248.81;5027256;28;20029;-55
2023/12/06 00:05:42;;;;;;;535.17;240.95;;;;;;;2.60;100.00;97245.38;5028235;28;20475;-54
2023/12/06 00:08:08;;;;;;;425.80;231.75;;;;;;;2.57;100.00;97247.06;5027188;28;20029;-55
2023/12/06 00:10:33;;;;;;;452.15;233.68;;;;;;;2.65;100.00;97248.03;5027557;28;20590;-54
2023/12/06 00:12:59;;;;;;;445.15;235.80;;;;;;;2.45;100.00;97242.59;5025767;28;20151;-54
2023/12/06 00:15:24;;;;;;;396.88;233.30;;;;;;;2.37;100.00;97241.59;5030555;28;20528;-55
2023/12/06 00:17:50;;;;;;;588.67;242.52;;;;;;;2.36;100.00;97250.97;5026786;28;20025;-54
2023/12/06 00:20:15;;;;;;;421.00;232.98;;;;;;;2.30;100.00;97245.75;5027320;28;20030;-53
2023/12/06 00:22:41;;;;;;;585.30;238.95;;;;;;;2.29;100.00;97252.56;5026613;28;20248;-54
2023/12/06 00:25:06;;;;;;;442.40;231.00;;;;;;;2.39;100.00;97250.16;5027772;28;20044;-54
2023/12/06 00:27:32;;;;;;;425.52;234.82;;;;;;;2.34;100.00;97250.94;5027537;28;20022;-55
2023/12/06 00:29:57;;;;;;;437.27;231.48;;;;;;;2.14;100.00;97250.59;5024489;28;20083;-54
2023/12/06 00:32:23;;;;;;;437.15;231.65;;;;;;;2.20;100.00;97255.81;5027774;28;20092;-54
2023/12/06 00:34:48;;;;;;;537.33;238.70;;;;;;;2.11;100.00;97253.09;5025505;28;20056;-53
2023/12/06 00:37:13;;;;;;;445.83;231.70;;;;;;;2.16;100.00;97248.06;5026516;28;20147;-54
2023/12/06 00:39:39;;;;;;;518.42;239.70;;;;;;;2.27;100.00;97245.69;5027947;28;20112;-54
2023/12/06 00:42:04;;;;;;;407.70;237.15;;;;;;;2.20;100.00;97252.41;5027373;28;20037;-54
2023/12/06 00:44:30;;;;;;;458.45;236.07;;;;;;;2.32;100.00;97255.19;5027046;28;20331;-55
2023/12/06 00:46:55;;;;;;;499.10;238.23;;;;;;;2.14;100.00;97252.28;5025186;28;20045;-53
2023/12/06 00:49:20;;;;;;;495.92;242.93;;;;;;;2.18;100.00;97251.50;5026228;28;20032;-55
2023/12/06 00:51:46;;;;;;;573.35;245.27;;;;;;;1.79;100.00;97254.22;5023587;28;20052;-54
2023/12/06 00:54:11;;;;;;;430.60;237.68;;;;;;;1.89;100.00;97255.25;5026791;28;20033;-56
2023/12/06 00:56:37;;;;;;;385.63;235.57;;;;;;;1.89;100.00;97256.97;5026624;28;20397;-54
2023/12/06 00:59:04;;;;;;;469.42;238.70;;;;;;;1.91;100.00;97256.16;5030806;28;20457;-56
2023/12/06 01:01:29;;;;;;;381.30;232.68;;;;;;;1.96;100.00;97256.25;5028235;28;20049;-54
2023/12/06 01:03:55;;;;;;;488.20;240.60;;;;;;;1.92;100.00;97251.88;5025447;28;20039;-57
2023/12/06 01:06:20;;;;;;;477.00;239.20;;;;;;;2.05;100.00;97260.69;5025389;28;20053;-55
2023/12/06 01:08:48;;;;;;;486.83;239.52;;;;;;;2.02;100.00;97265.75;5028644;28;20035;-56
2023/12/06 01:11:13;;;;;;;441.70;237.77;;;;;;;1.91;100.00;97263.88;5025617;28;20044;-54
2023/12/06 01:13:39;;;;;;;468.63;228.55;;;;;;;1.95;100.00;97263.09;5026580;28;20025;-54
2023/12/06 01:16:04;;;;;;;429.60;231.70;;;;;;;1.92;100.00;97270.72;5028621;28;20796;-54
2023/12/06 01:18:30;;;;;;;421.67;233.98;;;;;;;2.03;100.00;97270.03;5025282;28;20036;-56
2023/12/06 01:20:55;;;;;;;485.08;236.32;;;;;;;1.92;100.00;97269.84;5027346;28;20542;-54
2023/12/06 01:23:21;;;;;;;423.50;234.02;;;;;;;2.02;100.00;97268.31;5032844;28;20060;-56
2023/12/06 01:25:46;;;;;;;492.10;236.25;;;;;;;1.93;100.00;97261.34;5030835;28;20036;-53
2023/12/06 01:28:12;;;;;;;425.33;233.85;;;;;;;2.09;100.00;97272.75;5033132;28;20038;-55
2023/12/06 01:30:37;;;;;;;454.45;228.00;;;;;;;2.11;100.00;97278.75;5030804;28;20033;-54
2023/12/06 01:33:02;;;;;;;421.33;225.35;;;;;;;2.05;100.00;97281.22;5031502;28;20063;-54
2023/12/06 01:35:28;;;;;;;439.25;226.65;;;;;;;2.13;100.00;97279.66;5030988;28;20037;-54
2023/12/06 01:37:53;;;;;;;448.40;230.23;;;;;;;2.02;100.00;97270.88;5031212;28;20122;-56
2023/12/06 01:40:18;;;;;;;457.10;231.75;;;;;;;1.98;100.00;97281.91;5029216;28;20458;-55
2023/12/06 01:42:46;;;;;;;487.38;232.40;;;;;;;1.96;100.00;97281.88;5031677;28;20021;-54
2023/12/06 01:45:11;;;;;;;427.33;230.18;;;;;;;2.05;100.00;97281.22;5036288;28;20052;-54
2023/12/06 01:47:38;;;;;;;463.67;232.73;;;;;;;2.02;100.00;97281.16;5031443;28;20110;-55
2023/12/06 01:50:04;;;;;;;407.90;230.43;;;;;;;1.89;100.00;97280.06;5031943;28;20112;-53
2023/12/06 01:52:29;;;;;;;414.70;230.23;;;;;;;1.86;100.00;97282.56;5031656;28;20219;-55
2023/12/06 01:54:58;;;;;;;526.38;236.82;;;;;;;1.98;100.00;97281.91;5029618;28;20099;-54
2023/12/06 01:57:25;;;;;;;437.80;232.93;;;;;;;2.07;100.00;97279.53;5031180;28;20398;-53
2023/12/06 01:59:52;;;;;;;494.00;235.95;;;;;;;1.96;100.00;97276.75;5030690;28;20034;-55
2023/12/06 02:02:18;;;;;;;424.55;231.95;;;;;;;1.79;100.00;97277.28;5032283;28;20065;-52
2023/12/06 02:04:44;;;;;;;437.30;233.63;;;;;;;1.76;100.00;97273.81;5029908;28;20033;-54
2023/12/06 02:07:11;;;;;;;422.77;235.50;;;;;;;1.73;100.00;97274.63;5031840;28;20130;-55
2023/12/06 02:09:36;;;;;;;478.10;236.00;;;;;;;1.80;100.00;97285.84;5033433;28;20559;-53
2023/12/06 02:12:02;;;;;;;443.83;234.93;;;;;;;1.85;100.00;97280.84;5028942;28;20037;-54
2023/12/06 02:14:33;;;;;;;452.30;235.63;;;;;;;1.84;100.00;97272.25;5030495;28;20039;-56
2023/12/06 02:16:59;;;;;;;455.53;238.93;;;;;;;1.70;100.00;97282.22;5027888;28;20057;-54
2023/12/06 02:19:27;;;;;;;460.15;234.00;;;;;;;1.74;100.00;97272.91;5031521;28;20029;-54
2023/12/06 02:21:53;;;;;;;549.90;241.63;;;;;;;1.87;100.00;97285.16;5028996;28;20587;-54
2023/12/06 02:24:19;;;;;;;448.60;236.27;;;;;;;1.87;100.00;97281.72;5032930;28;20112;-53
2023/12/06 02:26:45;;;;;;;467.17;236.63;;;;;;;2.00;100.00;97282.84;5028284;28;20060;-54
2023/12/06 02:29:10;;;;;;;485.30;238.77;;;;;;;1.80;100.00;97275.59;5031998;28;20064;-53
2023/12/06 02:31:36;;;;;;;391.17;235.30;;;;;;;1.64;100.00;97275.28;5028849;28;20036;-53
2023/12/06 02:34:07;;;;;;;426.42;238.77;;;;;;;1.84;100.00;97273.94;5031227;28;20033;-54
2023/12/06 02:36:34;;;;;;;470.10;240.25;;;;;;;1.97;100.00;97278.50;5031610;28;20505;-54
2023/12/06 02:39:00;;;;;;;460.05;234.23;;;;;;;1.92;100.00;97275.84;5030077;28;20179;-54
2023/12/06 02:41:26;;;;;;;461.85;238.07;;;;;;;1.92;100.00;97285.22;5030164;28;20075;-55
2023/12/06 02:43:51;;;;;;;504.65;242.40;;;;;;;1.78;100.00;97275.56;5030084;28;20033;-54
2023/12/06 02:46:17;;;;;;;440.73;241.15;;;;;;;1.66;100.00;97272.75;5031469;28;20049;-53
2023/12/06 02:48:42;;;;;;;470.85;221.60;;;;;;;1.90;100.00;97279.22;5031904;28;20029;-54
2023/12/06 02:51:08;;;;;;;407.25;227.30;;;;;;;1.86;100.00;97278.31;5030588;28;20271;-53
2023/12/06 02:53:33;;;;;;;415.40;217.25;;;;;;;1.75;100.00;97275.50;5030159;28;20112;-53
2023/12/06 02:55:58;;;;;;;526.35;222.00;;;;;;;1.65;100.00;97274.47;5028980;28;20525;-53
2023/12/06 02:58:24;;;;;;;419.40;218.85;;;;;;;1.85;100.00;97275.69;5030289;28;20037;-53
2023/12/06 03:00:50;;;;;;;502.33;222.90;;;;;;;1.97;100.00;97283.63;5030070;28;20044;-55
2023/12/06 03:03:15;;;;;;;467.20;224.13;;;;;;;1.97;100.00;97275.06;5032751;28;20048;-53
2023/12/06 03:05:40;;;;;;;414.17;218.10;;;;;;;2.12;100.00;97275.38;5031364;28;20083;-53
2023/12/06 03:08:06;;;;;;;416.80;221.15;;;;;;;2.16;100.00;97274.56;5028347;28;20326;-54
2023/12/06 03:10:31;;;;;;;464.05;223.43;;;;;;;2.00;100.00;97270.00;5028599;28;20041;-55
2023/12/06 03:12:57;;;;;;;461.48;224.52;;;;;;;2.05;100.00;97266.66;5031171;28;20044;-54
2023/12/06 03:15:22;;;;;;;407.25;221.65;;;;;;;2.06;100.00;97275.25;5031504;28;20033;-54
2023/12/06 03:17:47;;;;;;;508.38;228.48;;;;;;;1.87;100.00;97281.72;5027528;28;20037;-56
2023/12/06 03:20:13;;;;;;;411.05;224.60;;;;;;;2.18;100.00;97283.16;5028791;28;20056;-54
2023/12/06 03:22:38;;;;;;;407.40;224.52;;;;;;;2.13;100.00;97282.22;5032489;28;20344;-55
2023/12/06 03:25:05;;;;;;;436.00;217.10;;;;;;;2.07;100.00;97284.66;5027911;28;20129;-54
2023/12/06 03:27:30;;;;;;;417.13;219.68;;;;;;;2.18;100.00;97283.16;5031593;28;20552;-54
2023/12/06 03:29:56;;;;;;;458.17;224.18;;;;;;;2.14;100.00;97286.50;5027592;28;20107;-54
2023/12/06 03:32:21;;;;;;;445.90;225.57;;;;;;;2.31;100.00;97279.13;5031694;28;20337;-54
2023/12/06 03:34:46;;;;;;;458.55;228.00;;;;;;;2.26;100.00;97285.88;5030473;28;20277;-53
2023/12/06 03:37:12;;;;;;;436.50;225.68;;;;;;;2.20;100.00;97285.78;5029104;28;20456;-54
2023/12/06 03:39:37;;;;;;;420.73;223.93;;;;;;;2.19;100.00;97284.91;5030570;28;20033;-53
2023/12/06 03:42:03;;;;;;;396.90;224.85;;;;;;;2.15;100.00;97289.97;5029727;28;20045;-55
2023/12/06 03:44:28;;;;;;;422.85;227.25;;;;;;;2.33;100.00;97284.28;5032325;28;20667;-54
2023/12/06 03:46:53;;;;;;;517.13;230.52;;;;;;;2.31;100.00;97286.81;5028420;28;20052;-55
2023/12/06 03:49:19;;;;;;;475.70;232.93;;;;;;;2.42;100.00;97294.69;5030359;28;20045;-53
2023/12/06 03:51:44;;;;;;;487.67;231.68;;;;;;;2.43;100.00;97291.31;5028408;28;20064;-55
2023/12/06 03:54:09;;;;;;;415.98;228.60;;;;;;;2.28;100.00;97291.91;5028507;28;20515;-55
2023/12/06 03:56:35;;;;;;;421.25;229.80;;;;;;;2.35;100.00;97295.44;5028936;28;20464;-54
2023/12/06 03:59:01;;;;;;;510.13;234.00;;;;;;;2.35;100.00;97295.44;5028961;28;20081;-55
2023/12/06 04:01:26;;;;;;;430.15;231.52;;;;;;;2.32;100.00;97292.81;5027963;28;20518;-54
2023/12/06 04:03:52;;;;;;;456.55;231.60;;;;;;;2.28;100.00;97294.47;5030384;28;20028;-54
2023/12/06 04:06:17;;;;;;;456.73;232.50;;;;;;;2.26;100.00;97291.00;5027597;28;20419;-53
2023/12/06 04:08:42;;;;;;;453.67;233.68;;;;;;;2.25;100.00;97294.41;5029129;28;20470;-53
2023/12/06 04:11:08;;;;;;;421.27;229.38;;;;;;;2.24;100.00;97297.81;5029452;28;20072;-53
2023/12/06 04:13:33;;;;;;;482.05;235.55;;;;;;;2.29;100.00;97296.19;5027389;28;20037;-55
2023/12/06 04:15:59;;;;;;;445.77;233.40;;;;;;;2.33;100.00;97297.97;5027912;28;20819;-53
2023/12/06 04:18:24;;;;;;;427.52;233.48;;;;;;;2.25;100.00;97307.25;5031363;28;20043;-53
2023/12/06 04:20:49;;;;;;;553.38;240.55;;;;;;;2.16;100.00;97307.06;5028535;28;20524;-53
2023/12/06 04:23:15;;;;;;;418.13;233.25;;;;;;;2.15;100.00;97307.91;5029690;28;20335;-53
2023/12/06 04:25:40;;;;;;;424.02;234.75;;;;;;;2.18;100.00;97313.09;5027875;28;20441;-53
2023/12/06 04:28:06;;;;;;;459.10;236.32;;;;;;;2.28;100.00;97315.00;5026934;28;20040;-54
2023/12/06 04:30:31;;;;;;;409.92;235.13;;;;;;;2.33;100.00;97312.50;5027759;28;20262;-53
2023/12/06 04:32:57;;;;;;;470.90;238.35;;;;;;;2.23;100.00;97313.19;5030058;28;20025;-54
2023/12/06 04:35:22;;;;;;;490.58;240.88;;;;;;;2.25;100.00;97304.69;5028366;28;20468;-52
2023/12/06 04:37:47;;;;;;;455.10;237.98;;;;;;;2.15;100.00;97313.03;5008387;28;20021;-53
2023/12/06 04:40:13;;;;;;;407.55;237.02;;;;;;;2.12;100.00;97318.09;5028653;28;20308;-54
2023/12/06 04:42:38;;;;;;;463.83;239.88;;;;;;;2.12;100.00;97321.56;5028230;28;20707;-53
2023/12/06 04:45:04;;;;;;;472.48;236.65;;;;;;;2.04;100.00;97325.66;5028628;28;20100;-53
2023/12/06 04:47:29;;;;;;;429.33;236.85;;;;;;;1.99;100.00;97324.69;5029808;28;20482;-54
2023/12/06 04:49:55;;;;;;;529.63;241.20;;;;;;;2.02;100.00;97327.31;5029582;28;20025;-54
2023/12/06 04:52:21;;;;;;;482.88;239.73;;;;;;;1.95;100.00;97327.22;5029704;28;20041;-54
2023/12/06 04:54:46;;;;;;;446.23;236.77;;;;;;;1.93;100.00;97326.28;5026680;28;20487;-52
2023/12/06 04:57:12;;;;;;;472.98;240.73;;;;;;;1.89;100.00;97337.31;5028232;28;20356;-53
2023/12/06 04:59:37;;;;;;;415.15;237.35;;;;;;;1.83;100.00;97337.22;5028149;28;20439;-54
2023/12/06 05:02:03;;;;;;;480.92;240.75;;;;;;;1.86;100.00;97337.28;5027094;28;20128;-53
2023/12/06 05:04:28;;;;;;;444.80;239.55;;;;;;;1.87;100.00;97339.00;5030156;28;20037;-54
2023/12/06 05:06:54;;;;;;;501.73;240.65;;;;;;;1.80;100.00;97332.00;5025642;28;20124;-53
2023/12/06 05:09:19;;;;;;;474.17;240.63;;;;;;;1.60;100.00;97329.88;5027727;28;20485;-52
2023/12/06 05:11:44;;;;;;;480.42;239.63;;;;;;;1.66;100.00;97339.41;5027506;28;20150;-54
2023/12/06 05:14:10;;;;;;;430.50;240.13;;;;;;;1.67;100.00;97339.44;5030828;28;20041;-52
2023/12/06 05:16:35;;;;;;;447.38;240.02;;;;;;;1.58;100.00;97341.81;5026889;28;20484;-53
2023/12/06 05:19:00;;;;;;;501.83;244.57;;;;;;;1.62;100.00;97337.59;5027172;28;20029;-52
2023/12/06 05:21:26;;;;;;;433.98;239.93;;;;;;;1.61;100.00;97347.00;5027966;28;20136;-52
2023/12/06 05:23:52;;;;;;;500.25;243.02;;;;;;;1.66;100.00;97341.97;5028291;28;20060;-52
2023/12/06 05:26:18;;;;;;;419.23;240.77;;;;;;;1.47;100.00;97353.50;5026793;28;20440;-53
2023/12/06 05:28:43;;;;;;;429.00;242.38;;;;;;;1.63;100.00;97347.03;5029579;28;20435;-54
2023/12/06 05:31:08;;;;;;;451.63;243.13;;;;;;;1.51;100.00;97348.50;5027388;28;20140;-54
2023/12/06 05:33:34;;;;;;;442.42;242.07;;;;;;;1.40;100.00;97344.81;5028932;28;20175;-53
2023/12/06 05:35:59;;;;;;;436.10;241.27;;;;;;;1.36;100.00;97346.47;5027436;28;20046;-54
2023/12/06 05:38:24;;;;;;;458.15;241.13;;;;;;;1.38;100.00;97343.94;5027130;28;20021;-55
2023/12/06 05:40:50;;;;;;;499.58;246.38;;;;;;;1.51;100.00;97347.63;5025861;28;20045;-53
2023/12/06 05:43:15;;;;;;;420.40;243.35;;;;;;;1.42;100.00;97349.13;5027092;28;20132;-53
2023/12/06 05:45:41;;;;;;;460.98;246.65;;;;;;;1.45;100.00;97350.06;5027613;28;20053;-55
2023/12/06 05:48:07;;;;;;;514.15;248.90;;;;;;;1.35;100.00;97342.16;5027767;28;20068;-52
2023/12/06 05:50:33;;;;;;;442.75;244.23;;;;;;;1.30;100.00;97356.56;5028447;28;20067;-53
2023/12/06 05:52:58;;;;;;;494.55;248.18;;;;;;;1.32;100.00;97354.91;5026710;28;20527;-53
2023/12/06 05:55:24;;;;;;;451.85;247.38;;;;;;;1.40;100.00;97347.38;5027143;28;20140;-54
2023/12/06 05:57:49;;;;;;;440.00;246.65;;;;;;;1.35;100.00;97354.97;5027888;28;20017;-52
2023/12/06 06:00:17;;;;;;;483.08;250.30;;;;;;;1.46;100.00;97357.78;5025609;28;20458;-55
2023/12/06 06:02:43;;;;;;;438.30;247.73;;;;;;;1.47;100.00;97353.50;5026805;28;20534;-54
2023/12/06 06:05:09;;;;;;;412.75;246.07;;;;;;;1.43;100.00;97360.28;5026595;28;21489;-53
2023/12/06 06:07:35;;;;;;;463.20;248.52;;;;;;;1.40;100.00;97352.50;5026638;28;20054;-53
2023/12/06 06:10:00;;;;;;;474.50;247.73;;;;;;;1.35;100.00;97361.78;5027719;28;20426;-53
2023/12/06 06:12:25;;;;;;;413.33;244.57;;;;;;;1.33;100.00;97363.47;5032490;28;20412;-53
2023/12/06 06:14:51;;;;;;;519.25;251.07;;;;;;;1.50;100.00;97367.28;5030454;28;20043;-53
2023/12/06 06:17:16;;;;;;;425.27;246.57;;;;;;;1.55;100.00;97362.22;5032646;28;20068;-53
2023/12/06 06:19:42;;;;;;;419.35;245.35;;;;;;;1.54;100.00;97363.94;5030998;28;20122;-53
2023/12/06 06:22:07;;;;;;;563.78;254.82;;;;;;;1.54;100.00;97365.63;5032028;28;20138;-53
2023/12/06 06:24:33;;;;;;;421.23;248.77;;;;;;;1.62;100.00;97369.25;5031157;28;20033;-54
2023/12/06 06:26:58;;;;;;;555.30;252.02;;;;;;;1.54;100.00;97371.66;5029890;28;20140;-53
2023/12/06 06:29:23;;;;;;;555.55;251.65;;;;;;;1.65;100.00;97377.00;5030948;28;20037;-53
2023/12/06 06:31:49;;;;;;;411.98;247.75;;;;;;;1.75;100.00;97372.06;5031468;28;20429;-54
2023/12/06 06:34:14;;;;;;;435.90;247.25;;;;;;;1.63;100.00;97370.97;5030203;28;20047;-54
2023/12/06 06:36:40;;;;;;;464.45;252.13;;;;;;;1.69;100.00;97375.38;5029911;28;20110;-52
2023/12/06 06:39:05;;;;;;;479.20;253.85;;;;;;;1.79;100.00;97381.56;5028768;28;20032;-54
2023/12/06 06:41:31;;;;;;;440.60;249.50;;;;;;;1.70;100.00;97382.22;5029890;28;20061;-53
2023/12/06 06:43:56;;;;;;;561.15;256.08;;;;;;;1.77;100.00;97384.09;5028361;28;20120;-54
2023/12/06 06:46:21;;;;;;;427.67;251.57;;;;;;;1.82;100.00;97379.09;5031984;28;20045;-53
2023/12/06 06:48:48;;;;;;;454.27;251.63;;;;;;;1.85;100.00;97376.56;5027871;28;20029;-53
2023/12/06 06:51:13;;;;;;;491.55;253.07;;;;;;;1.84;100.00;97385.09;5028261;28;20076;-53
2023/12/06 06:53:39;;;;;;;443.50;250.93;;;;;;;1.76;100.00;97384.94;5030884;28;20044;-53
2023/12/06 06:56:05;;;;;;;565.38;255.80;;;;;;;1.86;100.00;97387.69;5028599;28;20041;-54
2023/12/06 06:58:30;;;;;;;445.33;251.68;;;;;;;1.75;100.00;97384.91;5030305;28;20564;-53
2023/12/06 07:00:56;;;;;;;566.33;260.98;;;;;;;1.82;100.00;97386.78;5029718;28;20057;-53
2023/12/06 07:03:21;;;;;;;484.48;254.48;;;;;;;1.94;100.00;97387.00;5031063;28;20051;-53
2023/12/06 07:05:46;;;;;;;482.15;253.60;;;;;;;1.98;100.00;97392.22;5028088;28;20071;-53
2023/12/06 07:08:12;;;;;;;428.25;250.88;;;;;;;2.04;100.00;97393.22;5028708;28;20029;-54
2023/12/06 07:10:38;;;;;;;467.90;252.50;;;;;;;2.15;100.00;97400.28;5029750;28;20382;-52
2023/12/06 07:13:04;;;;;;;561.47;260.20;;;;;;;2.13;100.00;97397.69;5029144;28;20057;-52
2023/12/06 07:15:30;;;;;;;448.25;250.77;;;;;;;2.07;100.00;97405.22;5031476;28;20535;-53
2023/12/06 07:17:55;;;;;;;538.55;255.80;;;;;;;2.12;100.00;97402.78;5026240;28;20025;-52
2023/12/06 07:20:21;;;;;;;463.75;254.23;;;;;;;2.24;100.00;97402.16;5028655;28;20026;-53
2023/12/06 07:22:47;;;;;;;453.63;253.88;;;;;;;2.19;100.00;97402.06;5028309;28;20037;-54
2023/12/06 07:25:15;;;;;;;464.45;255.77;;;;;;;2.26;100.00;97400.50;5030039;28;20218;-54
2023/12/06 07:27:47;;;;;;;430.13;235.68;;;;;;;2.30;100.00;97408.25;5029444;28;20078;-54
2023/12/06 07:30:14;;;;;;;438.13;230.50;;;;;;;2.43;100.00;97413.66;5029475;28;21469;-54
2023/12/06 07:32:40;;;;;;;460.40;238.85;;;;;;;2.39;100.00;97410.16;5030937;28;20082;-52
2023/12/06 07:35:05;;;;;;;506.52;239.98;;;;;;;2.40;100.00;97411.88;5029071;28;20040;-54
2023/12/06 07:37:31;;;;;;;438.48;239.02;;;;;;;2.31;100.00;97412.56;5030076;28;20389;-53
2023/12/06 07:39:56;;;;;;;552.88;244.35;;;;;;;2.45;100.00;97417.13;5028749;28;20485;-53
2023/12/06 07:42:22;;;;;;;405.77;237.38;;;;;;;2.64;100.00;97415.78;5027784;28;20063;-53
2023/12/06 07:44:47;;;;;;;491.83;244.48;;;;;;;2.80;100.00;97416.06;5029611;28;20032;-53
2023/12/06 07:47:14;;;;;;;452.52;243.25;;;;;;;2.71;100.00;97420.19;5030481;28;20437;-54
2023/12/06 07:49:39;;;;;;;411.20;241.27;;;;;;;2.53;100.00;97420.69;5028985;28;20024;-53
2023/12/06 07:52:05;;;;;;;538.85;249.02;;;;;;;2.80;100.00;97422.06;5029294;28;20037;-53
2023/12/06 07:54:30;;;;;;;465.95;247.20;;;;;;;2.92;100.00;97426.56;5028474;28;20029;-53
2023/12/06 07:56:55;;;;;;;499.10;247.90;;;;;;;3.01;100.00;97428.44;5028847;28;20044;-54
2023/12/06 07:59:21;;;;;;;497.70;247.10;;;;;;;2.86;100.00;97434.16;5029048;28;20218;-53
2023/12/06 08:01:46;;;;;;;473.10;246.65;;;;;;;3.02;100.00;97427.59;5029277;28;20040;-52
2023/12/06 08:04:13;;;;;;;535.80;248.93;;;;;;;3.16;100.00;97427.84;5027860;28;20024;-53
2023/12/06 08:06:39;;;;;;;497.10;251.68;;;;;;;3.07;100.00;97425.97;5026777;28;20236;-53
2023/12/06 08:09:10;;;;;;;497.83;253.43;;;;;;;3.06;100.00;97433.63;5027215;28;20355;-52
2023/12/06 08:11:36;;;;;;;402.90;246.93;;;;;;;3.26;100.00;97426.25;5033387;28;20056;-54
2023/12/06 08:14:02;;;;;;;519.90;252.52;;;;;;;3.12;100.00;97433.75;5033315;28;20055;-53
2023/12/06 08:16:27;;;;;;;399.58;247.52;;;;;;;3.06;100.00;97434.50;5031839;28;20104;-54
2023/12/06 08:18:53;;;;;;;444.30;248.07;;;;;;;3.11;100.00;97432.88;5031592;28;20028;-54
2023/12/06 08:21:18;;;;;;;435.40;247.40;;;;;;;3.03;100.00;97438.72;5030435;28;20038;-53
2023/12/06 08:23:44;;;;;;;416.92;247.48;;;;;;;3.02;100.00;97429.28;5033174;28;20029;-53
2023/12/06 08:26:10;;;;;;;483.27;251.52;;;;;;;3.05;100.00;97429.34;5032095;28;20040;-53
2023/12/06 08:28:36;;;;;;;432.92;248.95;;;;;;;2.96;100.00;97438.63;5033990;28;20080;-53
2023/12/06 08:31:02;;;;;;;424.88;250.13;;;;;;;2.98;100.00;97436.94;5031097;28;20037;-53
2023/12/06 08:33:28;;;;;;;448.20;248.13;;;;;;;3.14;100.00;97444.91;5033132;28;20028;-52
2023/12/06 08:35:53;;;;;;;448.23;249.95;;;;;;;3.06;100.00;97443.91;5030910;28;20039;-54
2023/12/06 08:38:19;;;;;;;405.65;247.02;;;;;;;3.11;100.00;97447.44;5031632;28;20025;-52
2023/12/06 08:40:44;;;;;;;445.85;248.90;;;;;;;2.92;100.00;97446.22;5030377;28;20113;-53
2023/12/06 08:43:09;;;;;;;491.95;248.82;;;;;;;3.04;100.00;97448.19;5030536;28;20316;-55
2023/12/06 08:45:35;;;;;;;383.02;244.52;;;;;;;3.05;100.00;97450.78;5032711;28;20064;-53
2023/12/06 08:48:01;;;;;;;542.97;254.35;;;;;;;3.16;100.00;97455.22;5032082;28;20472;-53
2023/12/06 08:50:27;;;;;;;400.05;246.68;;;;;;;3.07;100.00;97451.66;5032701;28;20144;-54
2023/12/06 08:52:52;;;;;;;408.98;246.75;;;;;;;3.16;100.00;97460.38;5032651;28;20273;-52
2023/12/06 08:55:18;;;;;;;441.45;244.75;;;;;;;3.09;100.00;97462.81;5030098;28;20147;-53
2023/12/06 08:57:43;;;;;;;413.00;248.27;;;;;;;3.01;100.00;97456.69;5031321;28;20043;-55
2023/12/06 09:00:11;;;;;;;397.92;246.15;;;;;;;2.97;100.00;97462.63;5030532;28;20054;-54
2023/12/06 09:02:38;;;;;;;429.45;249.48;;;;;;;3.24;100.00;97467.34;5032351;28;20509;-54
2023/12/06 09:05:04;;;;;;;438.08;248.25;;;;;;;3.29;100.00;97469.16;5030977;28;20029;-54
2023/12/06 09:07:29;;;;;;;390.45;245.57;;;;;;;3.13;100.00;97464.59;5033160;28;20394;-54
2023/12/06 09:09:55;;;;;;;443.50;247.70;;;;;;;3.07;100.00;97466.19;5029940;28;20020;-54
2023/12/06 09:12:21;;;;;;;409.58;249.32;;;;;;;3.21;100.00;97469.91;5028975;28;20314;-53
2023/12/06 09:14:46;;;;;;;439.38;252.80;;;;;;;3.13;100.00;97466.31;5031903;28;20025;-55
2023/12/06 09:17:12;;;;;;;486.35;251.93;;;;;;;3.38;100.00;97472.75;5029215;28;20088;-53
2023/12/06 09:19:37;;;;;;;384.13;247.68;;;;;;;3.48;100.00;97476.34;5032197;28;20512;-55
2023/12/06 09:22:03;;;;;;;514.60;253.80;;;;;;;3.29;100.00;97472.59;5030626;28;20034;-54
2023/12/06 09:24:28;;;;;;;410.38;246.93;;;;;;;3.45;100.00;97476.28;5031562;28;20041;-52
2023/12/06 09:26:54;;;;;;;444.63;246.80;;;;;;;3.21;100.00;97472.47;5031462;28;20029;-54
2023/12/06 09:29:19;;;;;;;456.45;248.27;;;;;;;3.23;100.00;97477.63;5030140;28;20592;-54
2023/12/06 09:31:44;;;;;;;421.10;246.13;;;;;;;3.24;100.00;97475.06;5032392;28;20033;-54
2023/12/06 09:34:10;;;;;;;504.83;253.52;;;;;;;3.39;100.00;97477.03;5031650;28;20094;-54
2023/12/06 09:36:35;;;;;;;419.67;249.57;;;;;;;3.48;100.00;97478.91;5031684;28;20069;-53
2023/12/06 09:39:01;;;;;;;403.42;248.05;;;;;;;3.55;100.00;97477.31;5031134;28;20504;-55
2023/12/06 09:41:28;;;;;;;401.70;248.80;;;;;;;3.46;100.00;97480.56;5032376;28;20112;-53
2023/12/06 09:43:54;;;;;;;466.63;248.55;;;;;;;3.39;100.00;97478.75;5031438;28;20420;-54
2023/12/06 09:46:20;;;;;;;397.17;245.27;;;;;;;3.45;100.00;97478.00;5032815;28;20033;-54
2023/12/06 09:48:47;;;;;;;431.88;248.15;;;;;;;3.66;100.00;97474.91;5035388;28;20074;-55
2023/12/06 09:51:13;;;;;;;543.50;254.15;;;;;;;3.44;100.00;97478.81;5038739;28;20583;-54
2023/12/06 09:53:38;;;;;;;407.98;247.45;;;;;;;3.48;100.00;97478.91;5038042;28;20152;-55
2023/12/06 09:56:04;;;;;;;453.83;251.23;;;;;;;3.49;100.00;97475.50;5031174;28;20033;-53
2023/12/06 09:58:30;;;;;;;448.42;250.63;;;;;;;3.39;100.00;97469.31;5036408;28;20021;-55
2023/12/06 10:00:57;;;;;;;436.35;252.88;;;;;;;3.29;100.00;97476.84;5032806;28;20115;-54
2023/12/06 10:03:23;;;;;;;419.17;252.25;;;;;;;2.53;100.00;97479.72;5034127;28;20017;-54
2023/12/06 10:05:56;;;;;;;484.30;255.68;;;;;;;2.47;100.00;97474.47;5033778;28;20508;-54
2023/12/06 10:08:22;;;;;;;405.30;255.48;;;;;;;2.39;100.00;97476.91;5032757;28;20025;-54
2023/12/06 10:10:48;;;;;;;441.95;256.98;;;;;;;2.39;100.00;97473.47;5033796;28;20041;-54
2023/12/06 10:13:13;;;;;;;536.72;263.48;;;;;;;2.38;100.00;97475.19;5034330;28;20495;-54
2023/12/06 10:15:39;;;;;;;385.52;255.02;;;;;;;2.40;100.00;97477.75;5035649;28;20401;-54
2023/12/06 10:18:04;;;;;;;456.85;257.77;;;;;;;2.36;100.00;97475.94;5034620;28;20029;-53
2023/12/06 10:20:30;;;;;;;411.45;240.52;;;;;;;2.41;100.00;97477.78;5035932;28;20065;-54
2023/12/06 10:22:56;;;;;;;410.35;238.48;;;;;;;2.46;100.00;97473.59;5035716;28;20496;-53
2023/12/06 10:25:22;;;;;;;429.02;241.30;;;;;;;2.40;100.00;97482.88;5031928;28;20079;-54
2023/12/06 10:27:48;;;;;;;405.35;241.27;;;;;;;2.39;100.00;97482.03;5035499;28;20097;-54
2023/12/06 10:30:22;;;;;;;498.00;236.52;;;;;;;2.40;100.00;97477.75;5035479;28;20464;-55
2023/12/06 10:32:49;;;;;;;463.02;238.65;;;;;;;2.96;100.00;97474.59;5036603;28;20538;-53
2023/12/06 10:35:17;;;;;;;459.33;236.55;;;;;;;3.30;100.00;97478.59;5033467;28;20037;-55
2023/12/06 10:37:43;;;;;;;380.80;236.45;;;;;;;3.49;100.00;97475.50;5034521;28;20473;-54
2023/12/06 10:40:10;;;;;;;490.42;241.63;;;;;;;3.52;100.00;97472.09;5033066;28;20279;-54
2023/12/06 10:42:37;;;;;;;386.15;231.82;;;;;;;3.65;100.00;97470.59;5033304;28;20109;-52
2023/12/06 10:45:04;;;;;;;398.08;233.25;;;;;;;3.86;100.00;97469.22;5033265;28;20083;-53
2023/12/06 10:47:31;;;;;;;394.95;238.45;;;;;;;3.94;100.00;97466.75;5053562;28;20099;-53
2023/12/06 10:49:56;;;;;;;401.92;239.48;;;;;;;3.97;100.00;97470.22;5033015;28;20598;-53
2023/12/06 10:52:23;;;;;;;427.58;243.35;;;;;;;3.95;100.00;97469.34;5031316;28;20036;-55
2023/12/06 10:54:49;;;;;;;432.63;240.95;;;;;;;4.04;100.00;97478.91;5034590;28;20116;-53